Time;durP1;ratioP1;P1;durP2;ratioP2;P2;SDS_P1;SDS_P2;PMS_P1;PMS_P2;Temp;Humidity;BMP_temperature;BMP_pressure;BME280_temperature;BME280_humidity;BME280_pressure;Samples;Min_cycle;Max_cycle;Signal;HPM_P1;HPM_P2
2022/08/31 00:05:58;;;;;;;2.95;0.40;;;16.30;76.50;;;;;;4182643;28;20045;-86
2022/08/31 00:07:59;;;;;;;1.88;0.55;;;16.30;76.70;;;;;;4181766;28;20045;-85
2022/08/31 00:10:02;;;;;;;4.28;0.60;;;16.30;76.90;;;;;;4182634;28;20091;-85
2022/08/31 00:12:03;;;;;;;0.82;0.50;;;16.20;77.00;;;;;;4164706;28;20053;-85
2022/08/31 00:14:07;;;;;;;0.93;0.40;;;16.20;77.20;;;;;;4180303;28;20521;-85
2022/08/31 00:16:11;;;;;;;0.73;0.40;;;16.10;77.50;;;;;;4183454;28;20063;-85
2022/08/31 00:18:12;;;;;;;0.75;0.50;;;16.10;77.80;;;;;;4181377;28;20053;-85
2022/08/31 00:20:14;;;;;;;0.65;0.40;;;16.10;77.80;;;;;;4181490;28;20131;-85
2022/08/31 00:22:15;;;;;;;1.65;0.55;;;16.00;77.80;;;;;;4164651;28;20053;-85
2022/08/31 00:24:16;;;;;;;1.85;0.30;;;15.90;78.00;;;;;;4181461;28;20504;-85
2022/08/31 00:26:17;;;;;;;2.63;0.38;;;15.90;78.30;;;;;;4180701;28;20041;-85
2022/08/31 00:28:19;;;;;;;1.98;0.82;;;15.90;78.50;;;;;;4181383;28;20142;-85
2022/08/31 00:30:21;;;;;;;0.93;0.50;;;15.90;78.60;;;;;;4182269;28;20094;-85
2022/08/31 00:32:21;;;;;;;1.65;0.40;;;15.80;78.70;;;;;;4182020;28;20106;-84
2022/08/31 00:34:22;;;;;;;1.52;0.38;;;15.80;78.80;;;;;;4181292;28;20045;-85
2022/08/31 00:36:25;;;;;;;0.28;0.20;;;15.80;78.90;;;;;;4180997;28;20044;-86
2022/08/31 00:38:26;;;;;;;2.03;0.45;;;15.70;79.00;;;;;;4164475;28;20058;-85
2022/08/31 00:40:27;;;;;;;1.23;0.52;;;15.70;79.20;;;;;;4181854;28;20041;-85
2022/08/31 00:42:28;;;;;;;0.60;0.40;;;15.60;79.30;;;;;;4181982;28;20383;-85
2022/08/31 00:44:29;;;;;;;1.45;0.50;;;15.60;79.50;;;;;;4182019;28;20052;-85
2022/08/31 00:46:33;;;;;;;0.73;0.47;;;15.60;79.60;;;;;;4180828;28;20076;-85
2022/08/31 00:48:40;;;;;;;0.40;0.40;;;15.60;79.80;;;;;;4181337;28;20094;-85
2022/08/31 00:50:41;;;;;;;0.57;0.50;;;15.50;80.00;;;;;;4181116;28;20114;-85
2022/08/31 00:52:47;;;;;;;0.40;0.40;;;15.40;80.10;;;;;;4180640;28;20041;-85
2022/08/31 00:55:14;;;;;;;1.10;0.50;;;15.40;80.20;;;;;;4180718;28;20094;-85
2022/08/31 00:57:15;;;;;;;3.95;0.47;;;15.30;80.80;;;;;;4181942;28;20033;-86
2022/08/31 00:59:19;;;;;;;3.10;0.65;;;15.20;80.50;;;;;;4180278;28;20450;-85
2022/08/31 01:01:20;;;;;;;0.95;0.45;;;15.20;80.70;;;;;;4181707;28;20041;-85
2022/08/31 01:03:22;;;;;;;0.88;0.50;;;15.20;80.80;;;;;;4179914;28;20120;-85
2022/08/31 01:05:22;;;;;;;3.80;0.65;;;15.10;80.90;;;;;;4181695;28;20427;-85
2022/08/31 01:07:24;;;;;;;0.85;0.40;;;15.10;81.20;;;;;;4180244;28;20040;-86
2022/08/31 01:09:27;;;;;;;0.60;0.35;;;15.00;81.90;;;;;;4183172;28;20048;-87
2022/08/31 01:11:28;;;;;;;0.65;0.43;;;15.00;81.50;;;;;;4181830;28;20414;-86
2022/08/31 01:13:30;;;;;;;1.40;0.50;;;14.90;81.60;;;;;;4181154;28;20079;-86
2022/08/31 01:15:31;;;;;;;1.67;0.50;;;14.90;81.80;;;;;;4179994;28;20521;-86
2022/08/31 01:17:33;;;;;;;1.13;0.40;;;14.80;81.90;;;;;;4181175;28;20036;-86
2022/08/31 01:19:55;;;;;;;0.77;0.63;;;14.80;81.90;;;;;;4163542;28;20128;-85
2022/08/31 01:22:25;;;;;;;0.88;0.38;;;14.80;82.10;;;;;;4163713;28;20052;-86
2022/08/31 01:24:27;;;;;;;1.10;0.50;;;14.70;82.60;;;;;;4179750;28;20136;-85
2022/08/31 01:26:30;;;;;;;0.55;0.55;;;14.70;82.30;;;;;;4179670;28;20060;-85
2022/08/31 01:28:31;;;;;;;0.75;0.40;;;14.70;82.50;;;;;;4163479;28;20060;-85
2022/08/31 01:30:33;;;;;;;0.50;0.40;;;14.60;82.60;;;;;;4179881;28;20045;-85
2022/08/31 01:32:34;;;;;;;1.92;0.45;;;14.60;82.70;;;;;;4179920;28;20120;-86
2022/08/31 01:34:34;;;;;;;1.83;0.60;;;14.60;82.70;;;;;;4180996;28;20498;-85
2022/08/31 01:36:38;;;;;;;0.90;0.60;;;14.60;82.70;;;;;;4180302;28;20056;-85
2022/08/31 01:38:39;;;;;;;0.45;0.40;;;14.60;82.80;;;;;;4181084;28;20111;-85
2022/08/31 01:40:54;;;;;;;1.55;0.40;;;14.50;82.90;;;;;;4179791;28;20511;-85
2022/08/31 01:42:54;;;;;;;0.63;0.50;;;14.50;83.30;;;;;;4162869;28;20055;-85
2022/08/31 01:44:55;;;;;;;1.80;0.50;;;14.50;83.10;;;;;;4180819;28;20117;-85
2022/08/31 01:46:56;;;;;;;1.75;0.43;;;14.50;83.20;;;;;;4179849;28;20666;-85
2022/08/31 01:48:57;;;;;;;0.60;0.40;;;14.40;83.40;;;;;;4180553;28;20041;-85
2022/08/31 01:50:57;;;;;;;1.00;0.43;;;14.40;83.60;;;;;;4181267;28;20526;-85
2022/08/31 01:52:58;;;;;;;0.63;0.30;;;14.30;83.60;;;;;;4179936;28;20164;-85
2022/08/31 01:55:02;;;;;;;1.13;0.40;;;14.30;83.70;;;;;;4180833;28;20258;-85
2022/08/31 01:57:03;;;;;;;0.50;0.50;;;14.30;83.90;;;;;;4179026;28;20049;-85
2022/08/31 01:59:06;;;;;;;1.20;0.60;;;14.30;84.00;;;;;;4180772;28;20486;-85
2022/08/31 02:01:07;;;;;;;1.77;0.40;;;14.30;84.10;;;;;;4181655;28;20072;-85
2022/08/31 02:03:08;;;;;;;1.23;0.40;;;14.20;84.10;;;;;;4179366;28;20057;-86
2022/08/31 02:05:09;;;;;;;3.10;0.40;;;14.20;84.10;;;;;;4181253;28;20090;-85
2022/08/31 02:07:10;;;;;;;0.70;0.38;;;14.20;84.20;;;;;;4180642;28;20187;-85
2022/08/31 02:09:11;;;;;;;0.82;0.40;;;14.10;84.30;;;;;;4179398;28;20494;-85
2022/08/31 02:11:12;;;;;;;0.63;0.40;;;14.10;84.40;;;;;;4178845;28;20151;-85
2022/08/31 02:13:13;;;;;;;0.68;0.30;;;14.00;84.40;;;;;;4162829;28;20045;-85
2022/08/31 02:15:13;;;;;;;2.08;0.35;;;14.10;84.70;;;;;;4180615;28;20032;-85
2022/08/31 02:17:15;;;;;;;0.95;0.30;;;14.00;84.60;;;;;;4162720;28;20399;-85
2022/08/31 02:19:16;;;;;;;2.03;0.60;;;14.00;84.80;;;;;;4180579;28;20112;-85
2022/08/31 02:21:18;;;;;;;0.60;0.40;;;14.00;84.90;;;;;;4180516;28;20037;-85
2022/08/31 02:23:19;;;;;;;0.85;0.40;;;13.80;85.00;;;;;;4180214;28;20048;-85
2022/08/31 02:25:20;;;;;;;0.57;0.40;;;14.00;85.30;;;;;;4180586;28;20073;-85
2022/08/31 02:27:21;;;;;;;1.05;0.30;;;13.90;85.40;;;;;;4180637;28;20110;-85
2022/08/31 02:29:21;;;;;;;2.58;1.00;;;13.90;86.20;;;;;;4180381;28;20056;-84
2022/08/31 02:31:22;;;;;;;3.95;0.60;;;14.20;85.70;;;;;;4180588;28;20099;-85
2022/08/31 02:33:26;;;;;;;0.47;0.30;;;13.80;85.60;;;;;;4180370;28;20033;-85
2022/08/31 02:35:27;;;;;;;0.40;0.40;;;13.80;85.60;;;;;;4179190;28;20045;-85
2022/08/31 02:37:28;;;;;;;0.40;0.35;;;13.80;85.70;;;;;;4178750;28;20086;-85
2022/08/31 02:39:30;;;;;;;0.98;0.30;;;13.80;85.70;;;;;;4179081;28;20399;-85
2022/08/31 02:41:31;;;;;;;1.95;0.32;;;13.80;85.90;;;;;;4179066;28;20049;-85
2022/08/31 02:43:32;;;;;;;2.47;0.30;;;13.70;86.10;;;;;;4162553;28;20049;-86
2022/08/31 02:45:33;;;;;;;0.50;0.22;;;13.70;86.30;;;;;;4180618;28;20045;-85
2022/08/31 02:47:34;;;;;;;0.90;0.50;;;13.70;86.30;;;;;;4179942;28;20049;-85
2022/08/31 02:49:34;;;;;;;0.40;0.30;;;13.70;86.50;;;;;;4181930;28;20060;-85
2022/08/31 02:51:39;;;;;;;0.57;0.30;;;13.70;86.70;;;;;;4183472;28;20052;-85
2022/08/31 02:53:40;;;;;;;0.68;0.47;;;13.70;86.90;;;;;;4184351;28;20521;-85
2022/08/31 02:55:42;;;;;;;2.35;0.40;;;13.60;87.00;;;;;;4166463;28;20045;-85
2022/08/31 02:57:43;;;;;;;0.50;0.30;;;13.70;87.40;;;;;;4184620;28;20510;-85
2022/08/31 02:59:44;;;;;;;0.40;0.40;;;13.60;87.50;;;;;;4185079;28;20045;-85
2022/08/31 03:01:45;;;;;;;0.40;0.30;;;13.60;87.70;;;;;;4167071;28;20104;-86
2022/08/31 03:03:45;;;;;;;2.15;0.50;;;13.60;87.80;;;;;;4183849;28;20053;-85
2022/08/31 03:05:48;;;;;;;1.40;0.47;;;13.60;87.80;;;;;;4166328;28;20488;-86
2022/08/31 03:07:49;;;;;;;0.40;0.40;;;13.50;87.90;;;;;;4183510;28;20044;-85
2022/08/31 03:09:49;;;;;;;0.30;0.30;;;13.50;87.90;;;;;;4183200;28;20045;-85
2022/08/31 03:11:50;;;;;;;0.75;0.55;;;13.50;88.00;;;;;;4182793;28;20403;-85
2022/08/31 03:13:51;;;;;;;1.88;0.43;;;13.50;88.20;;;;;;4164287;28;20049;-84
2022/08/31 03:15:52;;;;;;;0.73;0.40;;;13.50;88.30;;;;;;4181562;28;20538;-85
2022/08/31 03:17:53;;;;;;;1.73;0.40;;;13.50;88.40;;;;;;4182653;28;20479;-85
2022/08/31 03:19:57;;;;;;;0.40;0.40;;;13.40;88.50;;;;;;4182619;28;20502;-85
2022/08/31 03:21:58;;;;;;;2.40;0.35;;;13.30;88.60;;;;;;4182771;28;20503;-85
2022/08/31 03:23:59;;;;;;;0.65;0.38;;;13.30;88.90;;;;;;4182892;28;20119;-85
2022/08/31 03:25:59;;;;;;;0.70;0.40;;;13.30;89.20;;;;;;4182794;28;20052;-85
2022/08/31 03:28:00;;;;;;;2.38;0.52;;;13.20;89.30;;;;;;4182462;28;20053;-86
2022/08/31 03:30:02;;;;;;;1.38;0.30;;;13.20;89.40;;;;;;4183060;28;20051;-85
2022/08/31 03:32:03;;;;;;;1.10;0.60;;;13.10;89.50;;;;;;4183466;28;20087;-85
2022/08/31 03:34:04;;;;;;;0.93;0.50;;;13.10;89.80;;;;;;4182813;28;20060;-85
2022/08/31 03:36:06;;;;;;;0.30;0.30;;;13.00;90.00;;;;;;4166574;28;20124;-85
2022/08/31 03:38:07;;;;;;;1.20;0.40;;;13.00;90.10;;;;;;4183561;28;20095;-85
2022/08/31 03:40:09;;;;;;;3.50;0.50;;;13.00;90.20;;;;;;4183998;28;20051;-84
2022/08/31 03:42:09;;;;;;;0.40;0.40;;;13.00;90.20;;;;;;4183932;28;20045;-85
2022/08/31 03:44:11;;;;;;;0.50;0.50;;;13.00;90.30;;;;;;4184348;28;20041;-84
2022/08/31 03:46:12;;;;;;;0.73;0.60;;;13.00;90.30;;;;;;4183137;28;20053;-85
2022/08/31 03:48:13;;;;;;;0.57;0.57;;;12.90;90.30;;;;;;4183013;28;20091;-85
2022/08/31 03:50:15;;;;;;;2.17;0.50;;;12.80;90.50;;;;;;4183652;28;20227;-85
2022/08/31 03:52:16;;;;;;;0.50;0.50;;;12.80;90.60;;;;;;4184401;28;20052;-85
2022/08/31 03:54:18;;;;;;;1.17;0.50;;;12.80;90.70;;;;;;4183941;28;20483;-84
2022/08/31 03:56:20;;;;;;;1.50;0.90;;;12.80;90.80;;;;;;4183111;28;20158;-84
2022/08/31 03:58:20;;;;;;;0.50;0.50;;;12.70;90.80;;;;;;4182561;28;20041;-86
2022/08/31 04:00:22;;;;;;;0.55;0.45;;;12.70;91.00;;;;;;4181007;28;20475;-85
2022/08/31 04:02:23;;;;;;;4.93;0.60;;;12.60;91.00;;;;;;4181083;28;20068;-85
2022/08/31 04:04:24;;;;;;;2.50;0.52;;;13.00;91.10;;;;;;4181431;28;20041;-85
2022/08/31 04:06:24;;;;;;;0.50;0.45;;;12.60;91.10;;;;;;4182825;28;20049;-85
2022/08/31 04:08:25;;;;;;;0.47;0.40;;;12.60;91.20;;;;;;4181019;28;20499;-84
2022/08/31 04:10:26;;;;;;;0.70;0.70;;;12.70;91.30;;;;;;4181082;28;20502;-85
2022/08/31 04:12:27;;;;;;;1.48;0.47;;;12.70;91.30;;;;;;4182076;28;20102;-86
2022/08/31 04:14:27;;;;;;;0.70;0.60;;;12.70;91.20;;;;;;4182594;28;20411;-86
2022/08/31 04:16:31;;;;;;;1.00;0.60;;;12.60;91.30;;;;;;4181229;28;20588;-86
2022/08/31 04:18:32;;;;;;;1.10;0.60;;;12.60;91.20;;;;;;4181620;28;20511;-85
2022/08/31 04:20:34;;;;;;;1.08;0.50;;;12.60;91.30;;;;;;4182743;28;20095;-86
2022/08/31 04:22:35;;;;;;;0.65;0.60;;;12.60;91.30;;;;;;4181632;28;20487;-86
2022/08/31 04:24:36;;;;;;;0.77;0.70;;;12.60;91.30;;;;;;4164894;28;20053;-85
2022/08/31 04:26:37;;;;;;;1.15;0.57;;;12.60;91.50;;;;;;4182318;28;20063;-86
2022/08/31 04:28:37;;;;;;;1.58;0.68;;;12.50;91.50;;;;;;4182587;28;20175;-86
2022/08/31 04:30:40;;;;;;;1.00;0.60;;;12.50;91.60;;;;;;4179285;28;20041;-86
2022/08/31 04:32:41;;;;;;;2.10;0.70;;;12.50;91.60;;;;;;4181959;28;20037;-86
2022/08/31 04:34:42;;;;;;;2.00;0.90;;;12.50;91.70;;;;;;4180401;28;20529;-86
2022/08/31 04:36:45;;;;;;;2.35;0.93;;;12.50;91.80;;;;;;4182363;28;20041;-85
2022/08/31 04:38:49;;;;;;;1.10;0.75;;;12.50;91.80;;;;;;4181198;28;20045;-86
2022/08/31 04:40:50;;;;;;;1.20;0.85;;;12.50;91.90;;;;;;4181042;28;20075;-86
2022/08/31 04:42:50;;;;;;;1.80;0.90;;;12.50;92.00;;;;;;4164967;28;20053;-86
2022/08/31 04:44:51;;;;;;;2.28;1.20;;;12.30;92.10;;;;;;4165731;28;20111;-86
2022/08/31 04:46:52;;;;;;;2.38;1.13;;;12.50;92.20;;;;;;4184563;28;20103;-85
2022/08/31 04:48:53;;;;;;;1.15;0.77;;;12.50;92.40;;;;;;4165113;28;20041;-87
2022/08/31 04:51:06;;;;;;;3.63;0.90;;;12.50;92.80;;;;;;4164028;28;20049;-86
2022/08/31 04:53:06;;;;;;;0.77;0.60;;;12.80;92.70;;;;;;4165480;28;20038;-86
2022/08/31 04:55:10;;;;;;;1.33;0.90;;;12.50;92.60;;;;;;4164154;28;20048;-87
2022/08/31 04:57:11;;;;;;;2.63;0.70;;;12.50;92.60;;;;;;4184906;28;20119;-87
2022/08/31 04:59:13;;;;;;;2.75;0.82;;;12.40;92.60;;;;;;4163861;28;20530;-87
2022/08/31 05:01:18;;;;;;;1.98;0.90;;;12.40;92.70;;;;;;4172635;28;20045;-86
2022/08/31 05:03:19;;;;;;;2.38;0.63;;;12.40;92.90;;;;;;4179620;28;20128;-87
2022/08/31 05:05:20;;;;;;;3.70;1.60;;;12.40;93.00;;;;;;4178620;28;20560;-86
2022/08/31 05:07:23;;;;;;;2.25;1.08;;;12.30;93.00;;;;;;4180033;28;20532;-85
2022/08/31 05:09:24;;;;;;;1.33;0.88;;;12.30;93.00;;;;;;4179655;28;20041;-85
2022/08/31 05:11:26;;;;;;;0.88;0.70;;;12.30;93.40;;;;;;4178734;28;20055;-86
2022/08/31 05:13:27;;;;;;;1.02;0.77;;;12.30;93.20;;;;;;4182930;28;20182;-85
2022/08/31 05:15:28;;;;;;;1.10;0.90;;;12.30;93.30;;;;;;4180906;28;20490;-85
2022/08/31 05:17:30;;;;;;;2.60;0.70;;;12.30;93.40;;;;;;4164696;28;20052;-85
2022/08/31 05:19:32;;;;;;;1.48;0.88;;;12.40;93.60;;;;;;4181901;28;20041;-85
2022/08/31 05:21:37;;;;;;;1.50;0.73;;;12.40;93.50;;;;;;4182695;28;20126;-84
2022/08/31 05:23:39;;;;;;;2.40;1.00;;;12.40;93.60;;;;;;4182316;28;20045;-86
2022/08/31 05:25:41;;;;;;;1.80;0.90;;;12.40;93.70;;;;;;4163908;28;20514;-86
2022/08/31 05:27:42;;;;;;;2.17;1.17;;;12.40;93.80;;;;;;4180088;28;20094;-88
2022/08/31 05:29:42;;;;;;;2.40;0.90;;;12.40;93.80;;;;;;4165288;28;20037;-86
2022/08/31 05:31:44;;;;;;;1.33;0.85;;;12.50;94.20;;;;;;4164882;28;20046;-86
2022/08/31 05:33:45;;;;;;;2.53;0.93;;;12.50;94.00;;;;;;4164509;28;20042;-87
2022/08/31 05:35:47;;;;;;;1.17;0.80;;;12.50;94.10;;;;;;4164817;28;20115;-89
2022/08/31 05:37:50;;;;;;;1.98;1.10;;;12.50;94.20;;;;;;4172250;28;20075;-86
2022/08/31 05:39:50;;;;;;;2.53;1.55;;;12.50;94.20;;;;;;4304430;22;20057;-86
2022/08/31 05:41:53;;;;;;;1.13;0.90;;;12.60;94.30;;;;;;4162949;28;20673;-83
2022/08/31 05:43:54;;;;;;;3.58;0.80;;;12.50;94.30;;;;;;4148485;28;20108;-84
2022/08/31 05:45:55;;;;;;;4.38;0.82;;;12.60;94.30;;;;;;4165233;28;20045;-84
2022/08/31 05:47:56;;;;;;;3.58;1.00;;;12.60;94.40;;;;;;4166621;28;20077;-85
2022/08/31 05:49:57;;;;;;;1.00;0.80;;;12.60;94.50;;;;;;4167517;28;20298;-85
2022/08/31 05:52:01;;;;;;;1.75;0.90;;;12.70;94.50;;;;;;4165899;28;20124;-84
2022/08/31 05:54:02;;;;;;;2.65;0.90;;;12.70;94.60;;;;;;4160121;28;20042;-84
2022/08/31 05:56:12;;;;;;;2.85;0.90;;;12.80;94.70;;;;;;4140559;28;20126;-84
2022/08/31 05:58:13;;;;;;;1.35;0.95;;;12.80;94.70;;;;;;4160999;28;20109;-84
2022/08/31 06:00:14;;;;;;;2.03;0.85;;;12.90;94.80;;;;;;4149080;28;20097;-84
2022/08/31 06:02:15;;;;;;;1.15;0.75;;;12.90;94.80;;;;;;4160341;28;20089;-84
2022/08/31 06:04:17;;;;;;;3.17;1.00;;;12.90;94.90;;;;;;4158576;28;20046;-83
2022/08/31 06:06:18;;;;;;;1.55;0.90;;;13.00;95.00;;;;;;4132819;28;20081;-84
2022/08/31 06:08:19;;;;;;;4.85;1.15;;;13.10;95.40;;;;;;4137145;28;20481;-84
2022/08/31 06:10:19;;;;;;;2.70;1.55;;;13.10;95.20;;;;;;4150656;28;20092;-82
2022/08/31 06:12:24;;;;;;;1.55;1.02;;;13.20;95.30;;;;;;4149838;28;20093;-83
2022/08/31 06:14:25;;;;;;;2.85;1.00;;;13.30;95.40;;;;;;4148454;28;20045;-84
2022/08/31 06:16:27;;;;;;;2.63;1.00;;;13.40;95.50;;;;;;4163128;28;20396;-84
2022/08/31 06:18:28;;;;;;;1.40;0.80;;;13.50;95.70;;;;;;4165720;28;20053;-85
2022/08/31 06:20:29;;;;;;;3.05;0.85;;;13.60;95.70;;;;;;4165284;28;20056;-84
2022/08/31 06:22:33;;;;;;;4.20;0.90;;;13.70;95.70;;;;;;4163141;28;20117;-83
2022/08/31 06:24:35;;;;;;;2.75;1.33;;;13.80;95.70;;;;;;4164203;28;20633;-84
2022/08/31 06:26:37;;;;;;;0.98;0.65;;;13.90;95.70;;;;;;4165145;28;20102;-85
2022/08/31 06:28:39;;;;;;;3.47;0.80;;;14.10;95.80;;;;;;4180372;28;20119;-87
2022/08/31 06:30:40;;;;;;;1.15;0.73;;;14.20;95.70;;;;;;4163160;28;20502;-86
2022/08/31 06:32:42;;;;;;;1.45;0.75;;;14.40;95.70;;;;;;4162703;28;20049;-86
2022/08/31 06:34:43;;;;;;;2.78;0.90;;;14.50;95.70;;;;;;4162260;28;20530;-86
2022/08/31 06:36:45;;;;;;;1.50;0.77;;;14.70;95.60;;;;;;4162749;28;20068;-86
2022/08/31 06:38:46;;;;;;;1.95;0.80;;;14.80;95.50;;;;;;4162507;28;20598;-86
2022/08/31 06:40:46;;;;;;;0.63;0.50;;;14.90;95.50;;;;;;4162772;28;20057;-86
2022/08/31 06:42:47;;;;;;;1.15;0.90;;;15.00;95.40;;;;;;4154960;28;20042;-87
2022/08/31 06:44:49;;;;;;;1.27;0.75;;;15.20;95.40;;;;;;4156277;28;20164;-88
2022/08/31 06:46:50;;;;;;;7.25;0.80;;;15.30;95.40;;;;;;4166062;28;20061;-87
2022/08/31 06:48:55;;;;;;;1.30;0.70;;;15.40;95.30;;;;;;4142731;28;20034;-88
2022/08/31 06:50:57;;;;;;;1.20;0.73;;;15.50;95.40;;;;;;4132327;28;20104;-87
2022/08/31 06:52:57;;;;;;;1.05;0.75;;;15.70;95.20;;;;;;4115690;28;20532;-87
2022/08/31 06:54:58;;;;;;;3.85;0.70;;;15.80;95.10;;;;;;4152648;28;20101;-87
2022/08/31 06:57:01;;;;;;;0.85;0.60;;;15.90;95.00;;;;;;4172354;28;20095;-87
2022/08/31 06:59:04;;;;;;;1.95;0.98;;;16.10;94.90;;;;;;4173314;28;20037;-87
2022/08/31 07:01:07;;;;;;;1.00;0.90;;;16.20;94.70;;;;;;4173274;28;20438;-87
2022/08/31 07:03:23;;;;;;;0.88;0.50;;;16.40;94.60;;;;;;4150682;28;20056;-87
2022/08/31 07:05:24;;;;;;;1.05;0.50;;;16.50;94.30;;;;;;4157721;28;20049;-87
2022/08/31 07:07:24;;;;;;;1.33;0.70;;;16.60;94.10;;;;;;4156323;28;20100;-86
2022/08/31 07:09:26;;;;;;;0.60;0.60;;;16.70;93.80;;;;;;4163167;28;20132;-86
2022/08/31 07:11:34;;;;;;;0.60;0.50;;;16.90;93.70;;;;;;4164760;28;20265;-86
2022/08/31 07:13:34;;;;;;;0.40;0.40;;;17.00;93.40;;;;;;4164929;28;20045;-87
2022/08/31 07:15:35;;;;;;;1.65;0.45;;;17.10;93.00;;;;;;4182692;28;20045;-87
2022/08/31 07:17:36;;;;;;;0.30;0.30;;;17.30;92.60;;;;;;4145556;28;20058;-86
2022/08/31 07:19:37;;;;;;;2.88;0.45;;;17.40;92.30;;;;;;4165432;28;20132;-87
2022/08/31 07:21:52;;;;;;;2.92;0.45;;;17.50;91.90;;;;;;4148032;28;20404;-87
2022/08/31 07:23:56;;;;;;;0.50;0.38;;;17.70;91.60;;;;;;4180549;28;20049;-87
2022/08/31 07:25:56;;;;;;;3.15;0.40;;;17.80;91.30;;;;;;4148181;28;20056;-87
2022/08/31 07:27:58;;;;;;;1.20;0.40;;;17.90;90.90;;;;;;4165740;28;20045;-85
2022/08/31 07:29:59;;;;;;;1.27;0.40;;;18.00;90.50;;;;;;4165637;28;20406;-87
2022/08/31 07:31:59;;;;;;;0.95;0.50;;;18.20;90.20;;;;;;4147210;28;20057;-86
2022/08/31 07:34:04;;;;;;;4.78;0.40;;;18.30;89.70;;;;;;4166046;28;20037;-86
2022/08/31 07:36:10;;;;;;;2.35;0.40;;;18.40;89.00;;;;;;4168242;28;20456;-86
2022/08/31 07:42:50;;;;;;;2.70;0.20;;;18.80;87.40;;;;;;4184031;28;20136;-88
2022/08/31 07:44:52;;;;;;;0.20;0.20;;;18.90;86.60;;;;;;4151561;28;20381;-88
2022/08/31 07:46:54;;;;;;;2.15;0.10;;;19.00;85.80;;;;;;4134763;28;20054;-87
2022/08/31 07:48:55;;;;;;;0.65;0.40;;;19.10;85.50;;;;;;4168993;28;20136;-87
2022/08/31 07:50:56;;;;;;;0.22;0.22;;;19.20;84.80;;;;;;4135068;28;20047;-87
2022/08/31 07:52:57;;;;;;;2.13;0.28;;;19.30;84.00;;;;;;4151594;28;20056;-87
2022/08/31 07:55:06;;;;;;;0.17;0.17;;;19.40;83.60;;;;;;4184398;28;20060;-88
2022/08/31 07:57:08;;;;;;;0.20;0.17;;;19.50;83.30;;;;;;4169848;28;20053;-87
2022/08/31 07:59:10;;;;;;;0.47;0.45;;;19.60;82.90;;;;;;4143515;28;20053;-88
2022/08/31 08:01:10;;;;;;;0.52;0.30;;;19.70;82.60;;;;;;4149506;28;20050;-88
2022/08/31 08:03:12;;;;;;;4.30;0.30;;;19.80;82.30;;;;;;4168646;28;20439;-88
2022/08/31 08:05:19;;;;;;;0.57;0.28;;;19.90;82.00;;;;;;4187087;28;20047;-88
2022/08/31 08:07:21;;;;;;;2.58;0.47;;;20.10;81.60;;;;;;4184742;28;20509;-88
2022/08/31 08:09:25;;;;;;;0.45;0.30;;;20.20;81.40;;;;;;4167344;28;20045;-88
2022/08/31 08:11:25;;;;;;;1.15;0.30;;;20.30;81.00;;;;;;4166676;28;20057;-88
2022/08/31 08:13:27;;;;;;;2.35;0.20;;;20.40;80.70;;;;;;4166891;28;20057;-88
2022/08/31 08:15:30;;;;;;;2.15;0.30;;;20.50;80.40;;;;;;4184690;28;20037;-88
2022/08/31 08:17:31;;;;;;;3.72;0.60;;;20.60;80.00;;;;;;4167375;28;20521;-88
2022/08/31 08:19:33;;;;;;;4.32;0.35;;;20.70;79.80;;;;;;4167735;28;20113;-88
2022/08/31 08:21:33;;;;;;;1.75;0.40;;;20.90;79.70;;;;;;4150129;28;20050;-88
2022/08/31 08:23:34;;;;;;;0.88;0.50;;;21.00;79.40;;;;;;4165849;28;20061;-89
2022/08/31 08:25:36;;;;;;;0.50;0.35;;;21.10;79.10;;;;;;4130129;28;20071;-88
2022/08/31 08:27:37;;;;;;;1.08;0.50;;;21.20;78.70;;;;;;4152698;28;20139;-88
2022/08/31 08:29:39;;;;;;;1.42;0.45;;;21.30;78.70;;;;;;4151055;28;20038;-87
2022/08/31 08:31:41;;;;;;;0.45;0.32;;;21.50;78.40;;;;;;4148297;28;20088;-87
2022/08/31 08:33:43;;;;;;;1.67;0.40;;;21.50;78.00;;;;;;4137664;28;20047;-89
2022/08/31 08:35:45;;;;;;;2.60;0.40;;;21.60;77.90;;;;;;4184441;28;20056;-88
2022/08/31 08:37:46;;;;;;;0.52;0.30;;;21.70;77.50;;;;;;4151058;28;20105;-88
2022/08/31 08:39:48;;;;;;;1.38;0.43;;;21.80;77.50;;;;;;4167783;28;20068;-88
2022/08/31 08:41:53;;;;;;;1.63;0.30;;;22.10;77.00;;;;;;4167152;28;20496;-85
2022/08/31 08:43:57;;;;;;;3.25;0.32;;;22.10;76.20;;;;;;4167813;28;20085;-87
2022/08/31 08:46:01;;;;;;;2.05;0.38;;;22.20;75.80;;;;;;4167666;28;20495;-87
2022/08/31 08:48:10;;;;;;;2.60;0.30;;;22.30;75.30;;;;;;4134122;28;20090;-87
2022/08/31 08:50:11;;;;;;;0.90;0.30;;;22.40;74.80;;;;;;4168120;28;20042;-86
2022/08/31 08:52:29;;;;;;;0.43;0.35;;;22.50;74.70;;;;;;4150615;28;20057;-87
2022/08/31 08:54:37;;;;;;;1.93;0.40;;;22.60;73.10;;;;;;4148762;28;20050;-86
2022/08/31 08:56:45;;;;;;;1.10;0.52;;;22.60;73.40;;;;;;4149430;28;20597;-86
2022/08/31 08:58:46;;;;;;;52.05;4.55;;;22.80;73.00;;;;;;4166423;28;20049;-86
2022/08/31 09:00:50;;;;;;;5.72;0.70;;;22.70;72.20;;;;;;4166900;28;20079;-87
2022/08/31 09:02:57;;;;;;;1.60;0.50;;;22.70;71.60;;;;;;4148740;28;20515;-87
2022/08/31 09:05:20;;;;;;;2.50;0.30;;;22.70;71.50;;;;;;4148308;28;20053;-86
2022/08/31 09:07:39;;;;;;;0.47;0.30;;;22.90;69.90;;;;;;4166282;28;20045;-86
2022/08/31 09:10:04;;;;;;;4.57;0.30;;;23.10;70.50;;;;;;4132337;28;20081;-86
2022/08/31 09:12:32;;;;;;;0.20;0.10;;;23.40;70.10;;;;;;4166202;28;20053;-86
2022/08/31 09:14:51;;;;;;;0.98;0.40;;;23.40;68.10;;;;;;4116307;28;20129;-85
2022/08/31 09:17:19;;;;;;;1.08;0.30;;;23.30;68.00;;;;;;4147954;28;20460;-86
2022/08/31 09:19:20;;;;;;;0.28;0.22;;;23.30;66.70;;;;;;4148282;28;20530;-85
2022/08/31 09:21:28;;;;;;;0.20;0.13;;;23.40;68.50;;;;;;4147669;28;20137;-86
2022/08/31 09:23:35;;;;;;;2.15;0.50;;;23.30;67.20;;;;;;4148793;28;20045;-86
2022/08/31 09:25:51;;;;;;;2.00;0.38;;;23.20;66.80;;;;;;4147859;28;20050;-85
2022/08/31 09:27:56;;;;;;;0.38;0.20;;;23.30;66.00;;;;;;4147646;28;20112;-85
2022/08/31 09:30:00;;;;;;;1.50;0.20;;;23.50;66.30;;;;;;4165462;28;20057;-86
2022/08/31 09:32:08;;;;;;;0.52;0.38;;;23.80;65.50;;;;;;4148107;28;20041;-86
2022/08/31 09:34:28;;;;;;;1.53;0.30;;;23.60;64.70;;;;;;4166011;28;20049;-86
2022/08/31 09:36:39;;;;;;;1.55;0.30;;;23.50;64.60;;;;;;4147882;28;20104;-87
2022/08/31 09:38:42;;;;;;;0.50;0.20;;;23.60;65.70;;;;;;4147849;28;20138;-86
2022/08/31 09:40:48;;;;;;;1.33;0.30;;;24.00;65.40;;;;;;4165534;28;20107;-86
2022/08/31 09:43:07;;;;;;;0.85;0.40;;;24.40;64.30;;;;;;4147577;28;20045;-86
2022/08/31 09:45:17;;;;;;;;;;;24.90;62.30;;;;;;4133145;28;20089;-87
2022/08/31 09:47:47;;;;;;;1.75;0.32;;;25.40;62.40;;;;;;4147839;28;20283;-87
2022/08/31 09:49:54;;;;;;;4.97;0.47;;;25.70;59.80;;;;;;4164885;28;20175;-86
2022/08/31 09:52:17;;;;;;;1.02;0.73;;;25.90;61.50;;;;;;4165943;28;20176;-86
2022/08/31 09:56:55;;;;;;;0.60;0.50;;;26.20;59.80;;;;;;4166760;28;20553;-87
2022/08/31 09:59:01;;;;;;;1.42;0.22;;;25.70;59.80;;;;;;4146881;28;20092;-87
2022/08/31 10:01:13;;;;;;;0.88;0.28;;;25.60;60.50;;;;;;4164929;28;20131;-85
2022/08/31 10:03:27;;;;;;;0.50;0.40;;;25.40;59.00;;;;;;4132019;28;20057;-87
2022/08/31 10:05:41;;;;;;;0.30;0.30;;;25.60;59.40;;;;;;4165037;28;20180;-86
2022/08/31 10:07:51;;;;;;;3.10;0.40;;;25.90;59.20;;;;;;4165806;28;20049;-86
2022/08/31 10:10:03;;;;;;;0.95;0.40;;;26.10;57.30;;;;;;4165595;28;20052;-86
2022/08/31 10:12:10;;;;;;;2.25;0.30;;;26.40;57.40;;;;;;4147534;28;20122;-86
2022/08/31 10:14:23;;;;;;;2.08;0.30;;;26.90;57.30;;;;;;4165140;28;20045;-86
2022/08/31 10:16:32;;;;;;;1.73;0.22;;;27.40;56.10;;;;;;4131891;28;20089;-86
2022/08/31 10:18:54;;;;;;;3.65;0.25;;;27.70;54.30;;;;;;4148342;28;20496;-86
2022/08/31 10:21:06;;;;;;;0.30;0.15;;;27.70;54.90;;;;;;4166543;28;20625;-86
2022/08/31 10:23:35;;;;;;;0.43;0.30;;;27.90;53.50;;;;;;4165959;28;20067;-87
2022/08/31 10:25:51;;;;;;;1.08;0.20;;;28.30;53.50;;;;;;4148398;28;20591;-86
2022/08/31 10:28:05;;;;;;;0.28;0.20;;;28.60;53.80;;;;;;4165522;28;20059;-86
2022/08/31 10:30:20;;;;;;;3.03;0.30;;;28.80;53.00;;;;;;4147758;28;20113;-86
2022/08/31 10:32:36;;;;;;;2.30;0.30;;;29.10;53.40;;;;;;4146637;28;20111;-86
2022/08/31 10:35:03;;;;;;;1.85;0.40;;;29.00;53.20;;;;;;4165156;28;20064;-86
2022/08/31 10:37:17;;;;;;;1.23;0.30;;;28.50;52.10;;;;;;4148093;28;20053;-86
2022/08/31 10:39:33;;;;;;;2.58;0.47;;;27.90;51.20;;;;;;4164084;28;20400;-86
2022/08/31 10:41:42;;;;;;;0.20;0.20;;;27.40;52.70;;;;;;4163994;28;20045;-86
2022/08/31 10:43:47;;;;;;;;;;;27.00;53.10;;;;;;4147500;28;20514;-86
2022/08/31 10:45:51;;;;;;;1.67;0.40;;;26.70;52.90;;;;;;4146693;28;20004;-86
2022/08/31 10:47:55;;;;;;;1.33;0.40;;;26.40;55.10;;;;;;4164369;28;20480;-86
2022/08/31 10:50:01;;;;;;;2.13;0.30;;;26.40;55.10;;;;;;4164485;28;20053;-86
2022/08/31 10:52:09;;;;;;;0.30;0.28;;;26.20;54.10;;;;;;4164274;28;20513;-86
2022/08/31 10:54:56;;;;;;;1.05;0.20;;;26.10;54.10;;;;;;4164823;28;20041;-86
2022/08/31 10:57:14;;;;;;;0.82;0.30;;;26.20;54.70;;;;;;4082249;29;20527;-85
2022/08/31 10:59:39;;;;;;;0.90;0.38;;;26.20;54.50;;;;;;4145922;28;20057;-87